createdAt,value
2023-05-19T00:00:10.722Z,8.21
2023-05-19T00:01:10.665Z,8.21
2023-05-19T00:02:10.687Z,8.21
2023-05-19T00:03:10.760Z,8.20
2023-05-19T00:04:10.648Z,8.18
2023-05-19T00:05:10.659Z,8.14
2023-05-19T00:06:10.700Z,8.17
2023-05-19T00:07:10.625Z,8.14
2023-05-19T00:08:10.671Z,8.14
2023-05-19T00:09:10.626Z,8.12
2023-05-19T00:10:10.603Z,8.07
2023-05-19T00:11:10.613Z,8.07
2023-05-19T00:12:10.609Z,8.12
2023-05-19T00:13:10.643Z,8.03
2023-05-19T00:14:10.589Z,8.06
2023-05-19T00:15:10.577Z,8.13
2023-05-19T00:16:10.631Z,8.18
2023-05-19T00:17:10.592Z,8.03
2023-05-19T00:18:10.559Z,8.07
2023-05-19T00:19:10.792Z,8.00
2023-05-19T00:20:10.542Z,8.00
2023-05-19T00:21:10.536Z,8.04
2023-05-19T00:22:10.539Z,7.91
2023-05-19T00:23:10.520Z,7.95
2023-05-19T00:24:10.546Z,8.06
2023-05-19T00:25:10.517Z,7.95
2023-05-19T00:26:10.492Z,7.88
2023-05-19T00:27:10.517Z,7.95
2023-05-19T00:28:10.466Z,7.89
2023-05-19T00:29:10.886Z,7.86
2023-05-19T00:30:10.458Z,7.94
2023-05-19T00:31:10.447Z,7.99
2023-05-19T00:32:10.532Z,7.94
2023-05-19T00:33:10.496Z,7.92
2023-05-19T00:34:10.471Z,7.82
2023-05-19T00:35:10.452Z,7.82
2023-05-19T00:36:10.435Z,7.84
2023-05-19T00:37:10.403Z,7.79
2023-05-19T00:38:10.469Z,7.81
2023-05-19T00:39:10.423Z,7.88
2023-05-19T00:40:10.416Z,7.82
2023-05-19T00:41:10.404Z,7.86
2023-05-19T00:42:10.398Z,7.81
2023-05-19T00:43:10.370Z,7.82
2023-05-19T00:44:10.361Z,7.84
2023-05-19T00:45:10.389Z,7.81
2023-05-19T00:46:10.400Z,7.77
2023-05-19T00:47:10.384Z,7.84
2023-05-19T00:48:10.436Z,7.73
2023-05-19T00:49:10.330Z,7.77
2023-05-19T00:50:10.344Z,7.71
2023-05-19T00:51:10.350Z,7.73
2023-05-19T00:52:10.287Z,7.66
2023-05-19T00:53:10.327Z,7.62
2023-05-19T00:54:10.301Z,7.62
2023-05-19T00:55:10.294Z,7.57
2023-05-19T00:56:10.309Z,7.60
2023-05-19T00:57:10.283Z,7.57
2023-05-19T00:58:10.249Z,7.60
2023-05-19T00:59:10.242Z,7.50
2023-05-19T01:00:10.246Z,7.57
2023-05-19T01:01:10.287Z,7.50
2023-05-19T01:02:10.223Z,7.50
2023-05-19T01:03:10.357Z,7.47
2023-05-19T01:04:10.335Z,7.37
2023-05-19T01:05:10.204Z,7.42
2023-05-19T01:06:10.251Z,7.36
2023-05-19T01:07:10.187Z,7.47
2023-05-19T01:08:10.193Z,7.30
2023-05-19T01:09:10.184Z,7.36
2023-05-19T01:10:10.177Z,7.41
2023-05-19T01:11:10.168Z,7.29
2023-05-19T01:12:10.206Z,7.41
2023-05-19T01:13:10.165Z,7.42
2023-05-19T01:14:10.187Z,7.45
2023-05-19T01:15:10.143Z,7.37
2023-05-19T01:16:10.169Z,7.42
2023-05-19T01:17:10.171Z,7.44
2023-05-19T01:18:10.200Z,7.45
2023-05-19T01:19:10.157Z,7.36
2023-05-19T01:20:10.096Z,7.36
2023-05-19T01:21:10.121Z,7.45
2023-05-19T01:22:10.129Z,7.37
2023-05-19T01:23:10.125Z,7.41
2023-05-19T01:24:10.072Z,7.41
2023-05-19T01:25:10.139Z,7.58
2023-05-19T01:26:10.098Z,7.45
2023-05-19T01:27:10.064Z,7.37
2023-05-19T01:28:10.103Z,7.55
2023-05-19T01:29:10.046Z,7.44
2023-05-19T01:30:10.038Z,7.44
2023-05-19T01:31:10.012Z,7.47
2023-05-19T01:32:10.186Z,7.63
2023-05-19T01:33:10.045Z,7.54
2023-05-19T01:34:10.010Z,7.44
2023-05-19T01:35:09.991Z,7.57
2023-05-19T01:36:09.996Z,7.54
2023-05-19T01:37:09.987Z,7.62
2023-05-19T01:38:10.039Z,7.69
2023-05-19T01:39:09.964Z,7.76
2023-05-19T01:40:09.999Z,7.77
2023-05-19T01:41:09.970Z,7.73
2023-05-19T01:42:09.927Z,7.76
2023-05-19T01:43:09.994Z,7.76
2023-05-19T01:44:09.950Z,7.73
2023-05-19T01:45:09.935Z,7.74
2023-05-19T01:46:09.987Z,7.81
2023-05-19T01:47:09.924Z,7.73
2023-05-19T01:48:11.182Z,7.76
2023-05-19T01:49:09.964Z,7.63
2023-05-19T01:50:09.889Z,7.70
2023-05-19T01:51:09.931Z,7.62
2023-05-19T01:52:09.868Z,7.54
2023-05-19T01:53:09.876Z,7.48
2023-05-19T01:54:09.899Z,7.50
2023-05-19T01:55:10.017Z,7.55
2023-05-19T01:56:09.853Z,7.44
2023-05-19T01:57:09.887Z,7.39
2023-05-19T01:58:09.852Z,7.54
2023-05-19T01:59:09.921Z,7.48
2023-05-19T02:00:09.826Z,7.47
2023-05-19T02:01:09.891Z,7.42
2023-05-19T02:02:09.814Z,7.39
2023-05-19T02:03:09.820Z,7.34
2023-05-19T02:04:09.848Z,7.41
2023-05-19T02:05:09.829Z,7.48
2023-05-19T02:06:09.760Z,7.34
2023-05-19T02:07:09.757Z,7.37
2023-05-19T02:08:09.780Z,7.36
2023-05-19T02:09:09.759Z,7.42
2023-05-19T02:10:09.793Z,7.42
2023-05-19T02:11:09.762Z,7.47
2023-05-19T02:12:09.725Z,7.33
2023-05-19T02:13:09.745Z,7.42
2023-05-19T02:14:09.764Z,7.30
2023-05-19T02:15:09.754Z,7.34
2023-05-19T02:16:09.727Z,7.34
2023-05-19T02:17:09.688Z,7.24
2023-05-19T02:18:09.695Z,7.12
2023-05-19T02:19:09.760Z,7.11
2023-05-19T02:20:09.763Z,7.12
2023-05-19T02:21:09.675Z,7.19
2023-05-19T02:22:09.642Z,7.16
2023-05-19T02:23:09.641Z,7.26
2023-05-19T02:24:09.646Z,7.34
2023-05-19T02:25:09.656Z,7.26
2023-05-19T02:26:09.672Z,7.34
2023-05-19T02:27:09.627Z,7.33
2023-05-19T02:28:09.611Z,7.24
2023-05-19T02:29:09.607Z,7.32
2023-05-19T02:30:09.606Z,7.21
2023-05-19T02:31:09.614Z,7.21
2023-05-19T02:32:09.601Z,7.14
2023-05-19T02:33:09.610Z,7.15
2023-05-19T02:34:09.566Z,7.15
2023-05-19T02:35:09.568Z,7.26
2023-05-19T02:36:10.154Z,7.24
2023-05-19T02:37:09.559Z,7.16
2023-05-19T02:38:09.561Z,7.18
2023-05-19T02:39:09.549Z,7.09
2023-05-19T02:40:09.516Z,7.19
2023-05-19T02:41:09.526Z,7.05
2023-05-19T02:42:09.583Z,7.08
2023-05-19T02:43:09.493Z,7.11
2023-05-19T02:44:09.643Z,7.05
2023-05-19T02:45:09.498Z,7.16
2023-05-19T02:46:09.529Z,7.11
2023-05-19T02:47:09.531Z,7.09
2023-05-19T02:48:09.554Z,7.07
2023-05-19T02:49:09.467Z,7.16
2023-05-19T02:50:09.478Z,7.14
2023-05-19T02:51:09.445Z,7.12
2023-05-19T02:52:09.466Z,7.12
2023-05-19T02:53:09.475Z,7.16
2023-05-19T02:54:09.435Z,7.04
2023-05-19T02:55:09.466Z,7.07
2023-05-19T02:56:09.425Z,7.04
2023-05-19T02:57:09.393Z,6.97
2023-05-19T02:58:09.474Z,7.01
2023-05-19T02:59:09.384Z,6.96
2023-05-19T03:00:09.400Z,6.93
2023-05-19T03:01:09.407Z,7.11
2023-05-19T03:02:09.477Z,7.09
2023-05-19T03:03:09.490Z,7.11
2023-05-19T03:04:09.550Z,7.07
2023-05-19T03:05:09.347Z,7.01
2023-05-19T03:06:09.381Z,6.91
2023-05-19T03:07:09.338Z,7.00
2023-05-19T03:08:09.397Z,6.94
2023-05-19T03:09:09.327Z,6.89
2023-05-19T03:10:09.301Z,6.99
2023-05-19T03:11:09.313Z,6.94
2023-05-19T03:12:09.311Z,6.96
2023-05-19T03:13:09.286Z,6.93
2023-05-19T03:14:09.350Z,6.99
2023-05-19T03:15:09.285Z,7.08
2023-05-19T03:16:09.304Z,6.99
2023-05-19T03:17:09.319Z,7.09
2023-05-19T03:18:09.264Z,7.16
2023-05-19T03:19:09.337Z,7.18
2023-05-19T03:20:09.228Z,7.16
2023-05-19T03:21:09.209Z,7.15
2023-05-19T03:22:09.232Z,7.12
2023-05-19T03:23:09.252Z,7.11
2023-05-19T03:24:09.228Z,7.05
2023-05-19T03:25:09.215Z,7.08
2023-05-19T03:26:09.208Z,7.07
2023-05-19T03:27:09.200Z,7.07
2023-05-19T03:28:09.186Z,7.00
2023-05-19T03:29:09.240Z,6.96
2023-05-19T03:30:09.185Z,6.94
2023-05-19T03:31:09.172Z,7.04
2023-05-19T03:32:09.177Z,6.87
2023-05-19T03:33:09.203Z,6.96
2023-05-19T03:34:09.153Z,6.90
2023-05-19T03:35:09.202Z,6.93
2023-05-19T03:36:09.132Z,6.79
2023-05-19T03:37:09.140Z,6.79
2023-05-19T03:38:09.110Z,6.79
2023-05-19T03:39:09.114Z,6.81
2023-05-19T03:40:09.159Z,6.72
2023-05-19T03:41:09.103Z,6.81
2023-05-19T03:42:09.123Z,6.93
2023-05-19T03:43:09.097Z,6.79
2023-05-19T03:44:09.086Z,6.76
2023-05-19T03:45:09.132Z,6.76
2023-05-19T03:46:09.110Z,6.73
2023-05-19T03:47:09.054Z,6.78
2023-05-19T03:48:09.098Z,6.79
2023-05-19T03:49:09.070Z,6.81
2023-05-19T03:50:09.011Z,6.78
2023-05-19T03:51:09.090Z,6.78
2023-05-19T03:52:08.995Z,6.81
2023-05-19T03:53:09.010Z,6.83
2023-05-19T03:54:09.036Z,6.79
2023-05-19T03:55:09.000Z,6.79
2023-05-19T03:56:09.029Z,6.82
2023-05-19T03:57:08.969Z,6.87
2023-05-19T03:58:08.979Z,6.89
2023-05-19T03:59:08.974Z,6.76
2023-05-19T04:00:08.936Z,6.82
2023-05-19T04:01:09.007Z,6.73
2023-05-19T04:02:08.969Z,6.83
2023-05-19T04:03:09.064Z,6.93
2023-05-19T04:04:08.977Z,6.78
2023-05-19T04:05:08.943Z,6.91
2023-05-19T04:06:08.929Z,6.90
2023-05-19T04:07:08.948Z,6.86
2023-05-19T04:08:08.916Z,6.89
2023-05-19T04:09:08.931Z,6.94
2023-05-19T04:10:08.895Z,6.91
2023-05-19T04:11:08.890Z,6.89
2023-05-19T04:12:08.932Z,6.83
2023-05-19T04:13:08.873Z,6.86
2023-05-19T04:14:08.865Z,6.82
2023-05-19T04:15:09.048Z,6.86
2023-05-19T04:16:08.875Z,6.83
2023-05-19T04:17:08.869Z,6.96
2023-05-19T04:18:08.846Z,6.90
2023-05-19T04:19:08.882Z,6.86
2023-05-19T04:20:08.807Z,6.99
2023-05-19T04:21:08.846Z,7.01
2023-05-19T04:22:08.815Z,6.93
2023-05-19T04:23:08.854Z,6.99
2023-05-19T04:24:08.779Z,7.04
2023-05-19T04:25:08.761Z,7.01
2023-05-19T04:26:08.749Z,7.04
2023-05-19T04:27:08.789Z,7.00
2023-05-19T04:28:08.771Z,7.12
2023-05-19T04:29:08.789Z,7.07
2023-05-19T04:30:08.753Z,7.11
2023-05-19T04:31:08.789Z,7.15
2023-05-19T04:32:08.737Z,7.12
2023-05-19T04:33:08.767Z,7.15
2023-05-19T04:34:08.732Z,7.14
2023-05-19T04:35:08.775Z,7.15
2023-05-19T04:36:08.722Z,7.14
2023-05-19T04:37:08.693Z,7.23
2023-05-19T04:38:08.682Z,7.21
2023-05-19T04:39:08.665Z,7.26
2023-05-19T04:40:08.674Z,7.24
2023-05-19T04:41:08.947Z,7.21
2023-05-19T04:42:08.629Z,7.29
2023-05-19T04:43:08.652Z,7.27
2023-05-19T04:44:08.657Z,7.34
2023-05-19T04:45:08.629Z,7.45
2023-05-19T04:46:09.557Z,7.36
2023-05-19T04:47:08.844Z,7.47
2023-05-19T04:48:08.630Z,7.42
2023-05-19T04:49:08.625Z,7.47
2023-05-19T04:50:08.585Z,7.44
2023-05-19T04:51:08.577Z,7.50
2023-05-19T04:52:08.596Z,7.37
2023-05-19T04:53:08.626Z,7.47
2023-05-19T04:54:08.571Z,7.55
2023-05-19T04:55:08.573Z,7.62
2023-05-19T04:56:08.552Z,7.67
2023-05-19T04:57:08.542Z,7.60
2023-05-19T04:58:08.580Z,7.55
2023-05-19T04:59:08.571Z,7.60
2023-05-19T05:00:08.553Z,7.73
2023-05-19T05:01:08.531Z,7.77
2023-05-19T05:02:08.569Z,7.77
2023-05-19T05:03:08.588Z,7.77
2023-05-19T05:04:08.586Z,7.79
2023-05-19T05:05:08.605Z,7.82
2023-05-19T05:06:08.506Z,7.95
2023-05-19T05:07:08.447Z,7.85
2023-05-19T05:08:08.470Z,8.04
2023-05-19T05:09:08.508Z,7.99
2023-05-19T05:10:08.448Z,8.10
2023-05-19T05:11:08.491Z,8.09
2023-05-19T05:12:08.441Z,8.10
2023-05-19T05:13:09.581Z,8.00
2023-05-19T05:14:08.425Z,8.09
2023-05-19T05:15:08.417Z,8.21
2023-05-19T05:16:08.476Z,8.25
2023-05-19T05:17:08.444Z,8.29
2023-05-19T05:18:08.403Z,8.40
2023-05-19T05:19:08.411Z,8.45
2023-05-19T05:20:08.431Z,8.45
2023-05-19T05:21:08.385Z,8.46
2023-05-19T05:22:08.387Z,8.57
2023-05-19T05:23:08.415Z,8.52
2023-05-19T05:24:08.344Z,8.55
2023-05-19T05:25:08.354Z,8.58
2023-05-19T05:26:08.351Z,8.64
2023-05-19T05:27:08.410Z,8.70
2023-05-19T05:28:08.329Z,8.65
2023-05-19T05:29:08.376Z,8.64
2023-05-19T05:30:08.302Z,8.79
2023-05-19T05:31:08.356Z,8.85
2023-05-19T05:32:08.344Z,8.79
2023-05-19T05:33:08.358Z,8.86
2023-05-19T05:34:08.269Z,8.86
2023-05-19T05:35:08.304Z,9.01
2023-05-19T05:36:08.261Z,9.10
2023-05-19T05:37:08.273Z,9.17
2023-05-19T05:38:08.237Z,9.13
2023-05-19T05:39:08.266Z,9.12
2023-05-19T05:40:08.251Z,9.12
2023-05-19T05:41:08.475Z,9.26
2023-05-19T05:42:08.223Z,9.23
2023-05-19T05:43:08.229Z,9.32
2023-05-19T05:44:08.195Z,9.35
2023-05-19T05:45:08.191Z,9.44
2023-05-19T05:46:08.266Z,9.60
2023-05-19T05:47:08.217Z,9.59
2023-05-19T05:48:08.213Z,9.65
2023-05-19T05:49:08.158Z,9.58
2023-05-19T05:50:08.138Z,9.60
2023-05-19T05:51:08.152Z,9.74
2023-05-19T05:52:08.110Z,9.74
2023-05-19T05:53:08.179Z,9.88
2023-05-19T05:54:08.108Z,10.07
2023-05-19T05:55:08.107Z,10.06
2023-05-19T05:56:08.113Z,10.13
2023-05-19T05:57:08.113Z,10.22
2023-05-19T05:58:08.078Z,10.10
2023-05-19T05:59:08.100Z,10.04
2023-05-19T06:00:08.135Z,10.04
2023-05-19T06:01:08.081Z,10.02
2023-05-19T06:02:08.092Z,10.06
2023-05-19T06:03:08.257Z,10.13
2023-05-19T06:04:08.053Z,10.28
2023-05-19T06:05:08.112Z,10.34
2023-05-19T06:06:08.031Z,10.43
2023-05-19T06:07:08.041Z,10.28
2023-05-19T06:08:08.003Z,10.47
2023-05-19T06:09:08.012Z,10.36
2023-05-19T06:10:07.985Z,10.42
2023-05-19T06:11:08.049Z,10.32
2023-05-19T06:12:08.036Z,10.31
2023-05-19T06:13:07.995Z,10.36
2023-05-19T06:14:07.973Z,10.29
2023-05-19T06:15:08.036Z,10.38
2023-05-19T06:16:08.119Z,10.49
2023-05-19T06:17:08.059Z,10.69
2023-05-19T06:18:07.992Z,10.75
2023-05-19T06:19:08.054Z,10.90
2023-05-19T06:20:08.014Z,10.76
2023-05-19T06:21:07.935Z,11.06
2023-05-19T06:22:07.909Z,10.98
2023-05-19T06:23:08.001Z,11.09
2023-05-19T06:24:07.892Z,11.24
2023-05-19T06:25:07.903Z,11.27
2023-05-19T06:26:07.914Z,11.35
2023-05-19T06:27:07.918Z,11.44
2023-05-19T06:28:07.891Z,11.46
2023-05-19T06:29:07.912Z,11.54
2023-05-19T06:30:07.930Z,11.51
2023-05-19T06:31:07.908Z,11.66
2023-05-19T06:32:07.892Z,11.57
2023-05-19T06:33:07.878Z,11.57
2023-05-19T06:34:07.854Z,11.66
2023-05-19T06:35:07.897Z,11.87
2023-05-19T06:36:07.832Z,11.85
2023-05-19T06:37:07.829Z,11.78
2023-05-19T06:38:07.786Z,11.66
2023-05-19T06:39:07.832Z,11.72
2023-05-19T06:40:07.835Z,11.75
2023-05-19T06:41:07.857Z,11.94
2023-05-19T06:42:07.794Z,11.87
2023-05-19T06:43:07.768Z,11.96
2023-05-19T06:44:07.771Z,12.04
2023-05-19T06:45:07.755Z,12.01
2023-05-19T06:46:07.791Z,12.12
2023-05-19T06:47:07.944Z,12.18
2023-05-19T06:48:07.787Z,12.19
2023-05-19T06:49:07.776Z,12.07
2023-05-19T06:50:07.734Z,12.08
2023-05-19T06:51:07.748Z,12.11
2023-05-19T06:52:07.712Z,12.26
2023-05-19T06:53:07.774Z,12.38
2023-05-19T06:54:07.704Z,12.37
2023-05-19T06:55:07.688Z,12.56
2023-05-19T06:56:07.714Z,12.63
2023-05-19T06:57:07.747Z,12.84
2023-05-19T06:58:07.951Z,12.85
2023-05-19T06:59:07.718Z,12.95
2023-05-19T07:00:07.649Z,13.24
2023-05-19T07:01:07.851Z,13.09
2023-05-19T07:02:07.700Z,13.04
2023-05-19T07:03:07.652Z,13.27
2023-05-19T07:04:07.742Z,13.35
2023-05-19T07:05:07.648Z,13.31
2023-05-19T07:06:08.464Z,13.39
2023-05-19T07:07:07.616Z,13.61
2023-05-19T07:08:07.580Z,13.63
2023-05-19T07:09:07.582Z,13.72
2023-05-19T07:10:07.545Z,13.63
2023-05-19T07:11:07.612Z,13.81
2023-05-19T07:12:07.542Z,13.90
2023-05-19T07:13:07.526Z,13.90
2023-05-19T07:14:07.515Z,13.88
2023-05-19T07:15:07.537Z,13.96
2023-05-19T07:16:07.679Z,14.12
2023-05-19T07:17:07.549Z,14.19
2023-05-19T07:18:07.563Z,14.16
2023-05-19T07:19:07.525Z,14.30
2023-05-19T07:20:07.504Z,14.42
2023-05-19T07:21:07.458Z,14.53
2023-05-19T07:22:07.484Z,14.71
2023-05-19T07:23:07.510Z,14.72
2023-05-19T07:24:07.475Z,14.82
2023-05-19T07:25:07.486Z,14.78
2023-05-19T07:26:07.472Z,14.83
2023-05-19T07:27:07.437Z,14.85
2023-05-19T07:28:07.425Z,15.04
2023-05-19T07:29:07.452Z,15.19
2023-05-19T07:30:07.426Z,15.12
2023-05-19T07:31:07.417Z,15.04
2023-05-19T07:32:07.434Z,15.12
2023-05-19T07:33:07.430Z,15.05
2023-05-19T07:34:07.394Z,14.72
2023-05-19T07:35:07.435Z,14.64
2023-05-19T07:36:07.375Z,14.85
2023-05-19T07:37:07.358Z,14.74
2023-05-19T07:38:07.372Z,14.83
2023-05-19T07:39:07.479Z,14.91
2023-05-19T07:40:07.332Z,14.95
2023-05-19T07:41:07.410Z,14.98
2023-05-19T07:42:07.357Z,14.90
2023-05-19T07:43:07.323Z,14.93
2023-05-19T07:44:07.340Z,14.90
2023-05-19T07:45:07.266Z,14.98
2023-05-19T07:46:07.339Z,15.01
2023-05-19T07:47:07.541Z,14.93
2023-05-19T07:48:07.331Z,15.12
2023-05-19T07:49:07.297Z,15.20
2023-05-19T07:50:07.307Z,15.31
2023-05-19T07:51:07.293Z,15.20
2023-05-19T07:52:07.279Z,15.22
2023-05-19T07:53:07.322Z,15.05
2023-05-19T07:54:07.249Z,15.07
2023-05-19T07:55:07.260Z,15.27
2023-05-19T07:56:07.249Z,15.23
2023-05-19T07:57:07.229Z,15.31
2023-05-19T07:58:07.235Z,15.35
2023-05-19T07:59:07.280Z,15.38
2023-05-19T08:00:07.215Z,15.43
2023-05-19T08:01:07.212Z,15.56
2023-05-19T08:02:07.278Z,15.60
2023-05-19T08:03:07.319Z,15.84
2023-05-19T08:04:08.521Z,15.89
2023-05-19T08:05:07.273Z,16.07
2023-05-19T08:06:07.170Z,15.93
2023-05-19T08:07:07.162Z,15.91
2023-05-19T08:08:07.176Z,15.86
2023-05-19T08:09:07.149Z,15.89
2023-05-19T08:10:07.139Z,15.89
2023-05-19T08:11:07.172Z,15.92
2023-05-19T08:12:07.126Z,16.23
2023-05-19T08:13:07.149Z,16.30
2023-05-19T08:14:07.132Z,16.29
2023-05-19T08:15:07.112Z,16.32
2023-05-19T08:16:07.176Z,16.04
2023-05-19T08:17:07.144Z,15.93
2023-05-19T08:18:07.142Z,15.86
2023-05-19T08:19:07.106Z,15.88
2023-05-19T08:20:07.053Z,16.01
2023-05-19T08:21:07.079Z,16.11
2023-05-19T08:22:07.139Z,16.14
2023-05-19T08:23:07.066Z,16.25
2023-05-19T08:24:07.061Z,16.41
2023-05-19T08:25:07.040Z,16.50
2023-05-19T08:26:07.037Z,16.14
2023-05-19T08:27:07.086Z,16.13
2023-05-19T08:28:07.034Z,16.30
2023-05-19T08:29:07.016Z,16.55
2023-05-19T08:30:07.000Z,16.65
2023-05-19T08:31:07.010Z,16.75
2023-05-19T08:32:06.994Z,16.67
2023-05-19T08:33:07.038Z,16.91
2023-05-19T08:34:06.983Z,17.20
2023-05-19T08:35:06.985Z,17.14
2023-05-19T08:36:06.977Z,17.28
2023-05-19T08:37:07.042Z,17.47
2023-05-19T08:38:06.996Z,17.73
2023-05-19T08:39:06.917Z,18.10
2023-05-19T08:40:06.941Z,18.10
2023-05-19T08:41:06.922Z,17.70
2023-05-19T08:42:06.898Z,17.86
2023-05-19T08:43:06.979Z,18.16
2023-05-19T08:44:06.904Z,18.35
2023-05-19T08:45:06.896Z,18.29
2023-05-19T08:46:06.977Z,18.29
2023-05-19T08:47:06.934Z,18.14
2023-05-19T08:48:06.921Z,17.96
2023-05-19T08:49:06.906Z,17.86
2023-05-19T08:50:06.860Z,17.87
2023-05-19T08:51:06.833Z,17.81
2023-05-19T08:52:06.834Z,17.92
2023-05-19T08:53:09.422Z,17.96
2023-05-19T08:54:07.870Z,17.98
2023-05-19T08:55:06.825Z,17.89
2023-05-19T08:56:06.814Z,17.95
2023-05-19T08:57:06.770Z,18.16
2023-05-19T08:58:06.781Z,18.21
2023-05-19T08:59:06.852Z,17.98
2023-05-19T09:00:06.779Z,17.68
2023-05-19T09:01:06.808Z,17.83
2023-05-19T09:02:06.770Z,18.34
2023-05-19T09:04:06.844Z,17.86
2023-05-19T09:05:06.813Z,18.31
2023-05-19T09:06:06.755Z,18.57
2023-05-19T09:07:06.732Z,18.68
2023-05-19T09:08:06.708Z,18.68
2023-05-19T09:09:06.683Z,18.65
2023-05-19T09:10:06.743Z,18.47
2023-05-19T09:11:06.709Z,18.10
2023-05-19T09:12:06.696Z,18.09
2023-05-19T09:13:06.679Z,18.25
2023-05-19T09:14:06.713Z,18.42
2023-05-19T09:15:06.713Z,18.74
2023-05-19T09:16:06.708Z,18.69
2023-05-19T09:17:06.724Z,18.89
2023-05-19T09:18:06.702Z,18.82
2023-05-19T09:19:06.658Z,18.54
2023-05-19T09:20:06.688Z,18.35
2023-05-19T09:21:06.653Z,18.49
2023-05-19T09:22:06.736Z,18.72
2023-05-19T09:23:06.628Z,18.65
2023-05-19T09:24:06.686Z,18.82
2023-05-19T09:25:06.567Z,18.71
2023-05-19T09:26:06.706Z,18.75
2023-05-19T09:27:06.553Z,18.83
2023-05-19T09:28:06.576Z,18.51
2023-05-19T09:29:06.597Z,18.51
2023-05-19T09:30:06.593Z,18.56
2023-05-19T09:31:06.702Z,18.90
2023-05-19T09:32:06.602Z,18.96
2023-05-19T09:33:06.659Z,19.27
2023-05-19T09:34:06.634Z,19.27
2023-05-19T09:35:06.686Z,19.30
2023-05-19T09:36:06.554Z,19.30
2023-05-19T09:37:06.691Z,19.42
2023-05-19T09:38:06.508Z,19.72
2023-05-19T09:39:06.504Z,19.62
2023-05-19T09:40:06.487Z,19.90
2023-05-19T09:41:06.488Z,19.43
2023-05-19T09:42:06.538Z,19.23
2023-05-19T09:43:06.451Z,19.20
2023-05-19T09:44:06.464Z,19.60
2023-05-19T09:45:06.428Z,19.82
2023-05-19T09:46:06.651Z,19.49
2023-05-19T09:47:06.440Z,19.89
2023-05-19T09:48:06.535Z,20.02
2023-05-19T09:49:06.402Z,19.86
2023-05-19T09:50:06.432Z,20.12
2023-05-19T09:51:06.518Z,19.76
2023-05-19T09:52:06.509Z,19.87
2023-05-19T09:53:06.436Z,20.19
2023-05-19T09:54:06.382Z,20.53
2023-05-19T09:55:06.382Z,20.79
2023-05-19T09:56:06.376Z,20.90
2023-05-19T09:57:08.418Z,20.75
2023-05-19T09:58:06.393Z,20.54
2023-05-19T09:59:06.372Z,20.78
2023-05-19T10:00:06.344Z,20.51
2023-05-19T10:01:06.412Z,19.95
2023-05-19T10:02:06.309Z,19.97
2023-05-19T10:03:06.385Z,20.48
2023-05-19T10:04:06.430Z,20.79
2023-05-19T10:05:06.366Z,20.22
2023-05-19T10:06:06.316Z,20.44
2023-05-19T10:07:06.338Z,20.50
2023-05-19T10:08:06.287Z,20.22
2023-05-19T10:09:06.317Z,20.54
2023-05-19T10:10:06.272Z,21.09
2023-05-19T10:11:06.264Z,21.43
2023-05-19T10:12:06.230Z,21.27
2023-05-19T10:13:06.279Z,20.48
2023-05-19T10:14:06.272Z,19.83
2023-05-19T10:15:06.211Z,20.30
2023-05-19T10:16:06.263Z,20.61
2023-05-19T10:17:06.239Z,20.93
2023-05-19T10:18:06.248Z,21.21
2023-05-19T10:19:06.250Z,21.30
2023-05-19T10:20:06.187Z,21.37
2023-05-19T10:21:06.175Z,21.26
2023-05-19T10:22:06.168Z,21.27
2023-05-19T10:23:06.172Z,21.01
2023-05-19T10:24:06.173Z,21.06
2023-05-19T10:25:06.233Z,21.22
2023-05-19T10:26:06.136Z,21.45
2023-05-19T10:27:06.142Z,21.55
2023-05-19T10:28:06.109Z,21.09
2023-05-19T10:29:06.183Z,21.48
2023-05-19T10:30:06.113Z,21.81
2023-05-19T10:31:06.114Z,21.86
2023-05-19T10:32:06.189Z,21.66
2023-05-19T10:33:06.121Z,21.86
2023-05-19T10:34:06.091Z,20.87
2023-05-19T10:35:06.108Z,21.15
2023-05-19T10:36:06.072Z,21.75
2023-05-19T10:37:06.070Z,22.06
2023-05-19T10:38:06.073Z,21.98
2023-05-19T10:39:06.053Z,21.67
2023-05-19T10:40:06.107Z,21.52
2023-05-19T10:41:06.054Z,21.28
2023-05-19T10:42:06.014Z,21.11
2023-05-19T10:43:06.043Z,21.03
2023-05-19T10:44:06.015Z,21.31
2023-05-19T10:45:06.072Z,21.49
2023-05-19T10:46:06.036Z,21.52
2023-05-19T10:47:06.020Z,22.02
2023-05-19T10:48:06.005Z,21.51
2023-05-19T10:49:05.986Z,21.61
2023-05-19T10:50:06.014Z,22.06
2023-05-19T10:51:06.188Z,22.49
2023-05-19T10:52:05.964Z,21.66
2023-05-19T10:53:05.972Z,21.55
2023-05-19T10:54:05.956Z,21.59
2023-05-19T10:55:05.923Z,21.18
2023-05-19T10:56:05.972Z,19.79
2023-05-19T10:57:05.927Z,19.68
2023-05-19T10:58:05.922Z,20.19
2023-05-19T10:59:05.952Z,21.09
2023-05-19T11:00:05.926Z,21.34
2023-05-19T11:01:05.945Z,20.66
2023-05-19T11:02:05.908Z,21.15
2023-05-19T11:03:05.962Z,21.93
2023-05-19T11:04:05.895Z,21.82
2023-05-19T11:05:05.881Z,22.42
2023-05-19T11:06:05.895Z,22.45
2023-05-19T11:07:05.857Z,22.01
2023-05-19T11:08:05.827Z,22.69
2023-05-19T11:09:05.867Z,22.21
2023-05-19T11:10:05.885Z,22.05
2023-05-19T11:11:05.886Z,22.89
2023-05-19T11:12:05.793Z,22.15
2023-05-19T11:13:06.477Z,21.82
2023-05-19T11:14:05.847Z,22.57
2023-05-19T11:15:05.841Z,23.09
2023-05-19T11:16:05.822Z,23.44
2023-05-19T11:17:05.902Z,24.00
2023-05-19T11:18:05.833Z,23.81
2023-05-19T11:19:05.814Z,22.93
2023-05-19T11:20:05.793Z,22.38
2023-05-19T11:21:05.824Z,21.81
2023-05-19T11:22:05.754Z,21.18
2023-05-19T11:23:05.761Z,21.66
2023-05-19T11:24:05.842Z,22.23
2023-05-19T11:25:05.734Z,22.61
2023-05-19T11:26:05.725Z,23.03
2023-05-19T11:27:05.756Z,23.57
2023-05-19T11:28:05.696Z,24.14
2023-05-19T11:29:05.691Z,23.72
2023-05-19T11:30:05.693Z,23.37
2023-05-19T11:31:05.728Z,23.94
2023-05-19T11:32:05.739Z,24.05
2023-05-19T11:33:05.818Z,24.15
2023-05-19T11:34:05.644Z,24.06
2023-05-19T11:35:05.654Z,23.39
2023-05-19T11:36:05.642Z,23.42
2023-05-19T11:37:05.653Z,23.31
2023-05-19T11:38:05.677Z,23.93
2023-05-19T11:39:05.674Z,24.36
2023-05-19T11:40:05.710Z,23.42
2023-05-19T11:41:05.663Z,22.67
2023-05-19T11:42:05.620Z,22.45
2023-05-19T11:43:05.611Z,23.04
2023-05-19T11:44:05.571Z,23.41
2023-05-19T11:45:05.660Z,23.53
2023-05-19T11:46:05.597Z,23.04
2023-05-19T11:47:05.554Z,21.56
2023-05-19T11:48:05.647Z,21.75
2023-05-19T11:49:05.553Z,21.91
2023-05-19T11:50:05.612Z,22.29
2023-05-19T11:51:05.492Z,22.76
2023-05-19T11:52:05.576Z,22.78
2023-05-19T11:53:05.527Z,23.04
2023-05-19T11:54:06.723Z,23.84
2023-05-19T11:55:05.480Z,24.46
2023-05-19T11:56:06.600Z,23.77
2023-05-19T11:57:05.500Z,23.84
2023-05-19T11:58:05.982Z,24.29
2023-05-19T11:59:05.560Z,23.92
2023-05-19T12:00:05.485Z,22.45
2023-05-19T12:01:05.459Z,22.89
2023-05-19T12:02:05.511Z,22.44
2023-05-19T12:03:05.615Z,22.63
2023-05-19T12:04:05.587Z,23.38
2023-05-19T12:05:05.547Z,23.94
2023-05-19T12:06:05.434Z,23.89
2023-05-19T12:07:05.413Z,23.99
2023-05-19T12:08:05.414Z,22.24
2023-05-19T12:09:05.388Z,21.64
2023-05-19T12:10:05.433Z,21.33
2023-05-19T12:11:05.440Z,20.33
2023-05-19T12:12:05.400Z,20.27
2023-05-19T12:13:05.374Z,20.82
2023-05-19T12:14:05.410Z,21.91
2023-05-19T12:15:05.459Z,22.04
2023-05-19T12:16:05.398Z,21.90
2023-05-19T12:17:05.331Z,21.51
2023-05-19T12:18:05.413Z,21.59
2023-05-19T12:19:05.359Z,21.82
2023-05-19T12:20:05.354Z,20.48
2023-05-19T12:21:05.318Z,20.23
2023-05-19T12:22:05.309Z,21.68
2023-05-19T12:23:05.287Z,21.79
2023-05-19T12:24:05.298Z,21.75
2023-05-19T12:25:05.328Z,21.53
2023-05-19T12:26:05.317Z,20.17
2023-05-19T12:27:05.329Z,19.98
2023-05-19T12:28:05.347Z,20.46
2023-05-19T12:29:05.301Z,20.12
2023-05-19T12:30:05.250Z,20.02
2023-05-19T12:31:05.333Z,20.08
2023-05-19T12:32:05.272Z,19.72
2023-05-19T12:33:05.218Z,19.62
2023-05-19T12:34:05.281Z,20.30
2023-05-19T12:35:05.193Z,20.05
2023-05-19T12:36:05.238Z,19.92
2023-05-19T12:37:05.233Z,20.30
2023-05-19T12:38:05.281Z,21.49
2023-05-19T12:39:05.151Z,22.45
2023-05-19T12:40:05.199Z,23.18
2023-05-19T12:41:05.138Z,23.72
2023-05-19T12:42:05.192Z,23.56
2023-05-19T12:43:05.176Z,23.59
2023-05-19T12:44:05.205Z,23.99
2023-05-19T12:45:05.154Z,22.85
2023-05-19T12:46:05.207Z,22.51
2023-05-19T12:47:05.181Z,21.61
2023-05-19T12:48:05.150Z,20.83
2023-05-19T12:49:05.113Z,21.55
2023-05-19T12:50:05.135Z,22.52
2023-05-19T12:51:05.136Z,22.11
2023-05-19T12:52:09.213Z,21.56
2023-05-19T12:53:06.090Z,21.11
2023-05-19T12:54:05.130Z,21.89
2023-05-19T12:55:05.292Z,20.97
2023-05-19T12:56:05.050Z,21.79
2023-05-19T12:57:05.086Z,20.60
2023-05-19T12:58:05.194Z,20.61
2023-05-19T12:59:05.036Z,20.10
2023-05-19T13:00:05.049Z,19.79
2023-05-19T13:01:05.090Z,20.37
2023-05-19T13:02:05.318Z,20.41
2023-05-19T13:03:05.405Z,20.25
2023-05-19T13:04:06.491Z,20.75
2023-05-19T13:05:05.017Z,21.36